createdAt,value
2022-08-16T00:00:59.792Z,50.08
2022-08-16T00:03:32.076Z,50.02
2022-08-16T00:06:06.096Z,49.94
2022-08-16T00:08:40.096Z,49.99
2022-08-16T00:11:15.892Z,50.17
2022-08-16T00:13:54.089Z,48.79
2022-08-16T00:17:05.645Z,50.01
2022-08-16T00:18:56.111Z,50.02
2022-08-16T00:21:29.213Z,50.21
2022-08-16T00:24:04.958Z,50.06
2022-08-16T00:26:44.504Z,50.03
2022-08-16T00:29:08.975Z,50.30
2022-08-16T00:31:58.957Z,50.01
2022-08-16T00:34:18.502Z,50.08
2022-08-16T00:36:55.608Z,50.04
2022-08-16T00:39:25.277Z,50.01
2022-08-16T00:41:57.884Z,50.11
2022-08-16T00:44:32.033Z,50.12
2022-08-16T00:47:08.764Z,50.04
2022-08-16T00:49:44.904Z,50.14
2022-08-16T00:52:30.190Z,50.32
2022-08-16T00:54:49.075Z,50.58
2022-08-16T00:57:23.976Z,50.57
2022-08-16T00:59:59.573Z,50.73
2022-08-16T01:02:33.094Z,50.80
2022-08-16T01:05:10.302Z,50.78
2022-08-16T01:07:50.500Z,50.85
2022-08-16T01:10:16.184Z,51.24
2022-08-16T01:12:47.356Z,51.08
2022-08-16T01:15:19.801Z,51.27
2022-08-16T01:17:56.035Z,51.17
2022-08-16T01:20:34.097Z,51.12
2022-08-16T01:23:21.221Z,51.32
2022-08-16T01:26:00.248Z,51.39
2022-08-16T01:28:30.781Z,51.42
2022-08-16T01:31:05.773Z,51.65
2022-08-16T01:33:38.846Z,51.50
2022-08-16T01:36:13.263Z,51.87
2022-08-16T01:38:53.134Z,51.75
2022-08-16T01:41:29.723Z,51.74
2022-08-16T01:44:03.138Z,52.01
2022-08-16T01:46:40.709Z,52.15
2022-08-16T01:49:42.792Z,51.92
2022-08-16T01:52:04.968Z,52.24
2022-08-16T01:54:56.335Z,52.08
2022-08-16T01:57:31.543Z,52.21
2022-08-16T02:00:06.188Z,52.75
2022-08-16T02:02:42.453Z,52.71
2022-08-16T02:05:14.874Z,52.71
2022-08-16T02:07:46.987Z,52.98
2022-08-16T02:10:21.780Z,53.32
2022-08-16T02:13:00.644Z,53.04
2022-08-16T02:15:35.475Z,53.04
2022-08-16T02:18:07.661Z,53.13
2022-08-16T02:20:42.795Z,53.35
2022-08-16T02:23:18.338Z,53.24
2022-08-16T02:25:53.823Z,53.17
2022-08-16T02:28:26.287Z,52.79
2022-08-16T02:30:59.978Z,52.70
2022-08-16T02:33:43.487Z,51.95
2022-08-16T02:36:07.972Z,52.57
2022-08-16T02:38:41.948Z,52.48
2022-08-16T02:41:14.936Z,52.45
2022-08-16T02:43:47.264Z,52.45
2022-08-16T02:46:21.014Z,52.16
2022-08-16T02:48:55.022Z,52.28
2022-08-16T02:51:28.955Z,52.24
2022-08-16T02:54:03.088Z,52.16
2022-08-16T02:56:35.547Z,51.99
2022-08-16T02:59:11.734Z,52.15
2022-08-16T03:01:43.516Z,52.09
2022-08-16T03:04:29.816Z,52.21
2022-08-16T03:06:57.241Z,52.01
2022-08-16T03:09:37.999Z,52.18
2022-08-16T03:12:10.202Z,52.36
2022-08-16T03:14:44.115Z,52.48
2022-08-16T03:17:16.571Z,52.26
2022-08-16T03:19:59.780Z,52.42
2022-08-16T03:22:28.134Z,52.60
2022-08-16T03:25:00.794Z,51.64
2022-08-16T03:27:35.934Z,52.32
2022-08-16T03:30:16.156Z,52.37
2022-08-16T03:32:51.342Z,52.22
2022-08-16T03:35:32.582Z,51.89
2022-08-16T03:38:35.041Z,51.77
2022-08-16T03:40:42.626Z,51.36
2022-08-16T03:43:19.621Z,51.17
2022-08-16T03:45:53.443Z,51.12
2022-08-16T03:48:36.775Z,50.77
2022-08-16T03:51:12.385Z,50.47
2022-08-16T03:54:01.026Z,49.90
2022-08-16T03:56:21.317Z,49.45
2022-08-16T03:58:55.271Z,49.32
2022-08-16T04:01:29.956Z,48.80
2022-08-16T04:04:02.433Z,48.58
2022-08-16T04:06:36.246Z,48.15
2022-08-16T04:09:12.504Z,48.13
2022-08-16T04:11:43.338Z,47.63
2022-08-16T04:14:31.037Z,47.66
2022-08-16T04:16:50.465Z,47.22
2022-08-16T04:19:26.294Z,47.05
2022-08-16T04:22:00.706Z,46.57
2022-08-16T04:24:35.149Z,46.38
2022-08-16T04:27:09.070Z,46.09
2022-08-16T04:29:44.575Z,45.97
2022-08-16T04:32:16.466Z,45.63
2022-08-16T04:34:50.601Z,45.44
2022-08-16T04:37:23.660Z,45.39
2022-08-16T04:39:59.729Z,44.92
2022-08-16T04:42:35.923Z,44.66
2022-08-16T04:45:08.817Z,44.46
2022-08-16T04:47:41.280Z,44.68
2022-08-16T04:50:19.676Z,43.88
2022-08-16T04:53:08.243Z,43.60
2022-08-16T04:55:44.718Z,43.61
2022-08-16T04:58:45.543Z,43.42
2022-08-16T05:00:50.941Z,43.17
2022-08-16T05:03:26.141Z,43.07
2022-08-16T05:06:05.304Z,42.72
2022-08-16T05:08:34.267Z,42.67
2022-08-16T05:11:20.575Z,42.66
2022-08-16T05:13:53.415Z,43.04
2022-08-16T05:16:30.752Z,42.48
2022-08-16T05:19:11.379Z,42.52
2022-08-16T05:21:42.258Z,42.35
2022-08-16T05:24:15.372Z,41.68
2022-08-16T05:26:51.580Z,41.91
2022-08-16T05:29:57.501Z,41.62
2022-08-16T05:32:03.713Z,41.33
2022-08-16T05:34:37.855Z,41.01
2022-08-16T05:37:11.993Z,41.15
2022-08-16T05:39:44.590Z,40.68
2022-08-16T05:42:19.692Z,40.90
2022-08-16T05:44:52.530Z,40.31
2022-08-16T05:47:25.051Z,39.84
2022-08-16T05:49:59.438Z,39.69
2022-08-16T05:52:33.094Z,39.65
2022-08-16T05:55:07.581Z,39.07
2022-08-16T05:57:41.955Z,39.15
2022-08-16T06:00:22.526Z,39.08
2022-08-16T06:02:51.072Z,39.06
2022-08-16T06:05:41.604Z,38.85
2022-08-16T06:08:31.489Z,38.50
2022-08-16T06:11:02.792Z,38.41
2022-08-16T06:13:24.463Z,37.88
2022-08-16T06:15:57.246Z,37.42
2022-08-16T06:18:30.798Z,35.87
2022-08-16T06:21:03.391Z,35.22
2022-08-16T06:23:37.303Z,34.19
2022-08-16T06:26:11.407Z,33.26
2022-08-16T06:28:45.664Z,31.92
2022-08-16T06:31:25.007Z,30.88
2022-08-16T06:33:54.628Z,30.17
2022-08-16T06:36:27.291Z,29.33
2022-08-16T06:39:05.041Z,28.31
2022-08-16T06:41:40.201Z,28.09
2022-08-16T06:44:21.183Z,28.30
2022-08-16T06:46:50.605Z,28.92
2022-08-16T06:49:22.339Z,28.77
2022-08-16T06:51:55.390Z,28.31
2022-08-16T06:54:30.724Z,27.50
2022-08-16T06:57:05.660Z,26.88
2022-08-16T06:59:53.117Z,26.64
2022-08-16T07:02:33.179Z,27.05
2022-08-16T07:04:49.338Z,27.63
2022-08-16T07:07:24.599Z,28.30
2022-08-16T07:09:58.086Z,29.12
2022-08-16T07:12:46.995Z,29.52
2022-08-16T07:15:08.579Z,30.21
2022-08-16T07:17:42.580Z,30.47
2022-08-16T07:20:34.945Z,30.39
2022-08-16T07:22:53.135Z,30.43
2022-08-16T07:25:27.941Z,31.14
2022-08-16T07:28:02.006Z,31.48
2022-08-16T07:30:46.519Z,31.58
2022-08-16T07:33:51.453Z,31.93
2022-08-16T07:35:51.834Z,31.17
2022-08-16T07:38:31.655Z,31.51
2022-08-16T07:41:01.921Z,31.68
2022-08-16T07:43:40.487Z,32.18
2022-08-16T07:46:38.547Z,32.50
2022-08-16T07:48:47.552Z,32.94
2022-08-16T07:51:20.878Z,33.03
2022-08-16T07:54:09.676Z,33.35
2022-08-16T07:56:33.765Z,32.72
2022-08-16T07:59:03.713Z,32.67
2022-08-16T08:01:38.506Z,32.88
2022-08-16T08:04:13.038Z,33.03
2022-08-16T08:06:51.181Z,33.00
2022-08-16T08:09:21.954Z,32.96
2022-08-16T08:11:59.804Z,32.81
2022-08-16T08:14:29.746Z,32.97
2022-08-16T08:17:02.021Z,32.73
2022-08-16T08:19:40.276Z,32.57
2022-08-16T08:22:19.211Z,32.56
2022-08-16T08:24:49.894Z,32.52
2022-08-16T08:27:23.561Z,32.68
2022-08-16T08:30:50.446Z,32.62
2022-08-16T08:32:59.854Z,32.79
2022-08-16T08:35:11.950Z,32.31
2022-08-16T08:37:54.471Z,32.01
2022-08-16T08:40:24.762Z,31.68
2022-08-16T08:43:00.698Z,32.08
2022-08-16T08:45:48.223Z,31.94
2022-08-16T08:48:08.338Z,32.30
2022-08-16T08:50:42.956Z,32.42
2022-08-16T08:53:17.434Z,32.48
2022-08-16T08:55:59.255Z,32.31
2022-08-16T08:58:34.058Z,32.62
2022-08-16T09:01:03.176Z,32.49
2022-08-16T09:03:38.822Z,32.64
2022-08-16T09:06:13.438Z,32.67
2022-08-16T09:08:48.051Z,32.62
2022-08-16T09:11:20.858Z,32.34
2022-08-16T09:13:54.299Z,32.33
2022-08-16T09:17:01.446Z,32.47
2022-08-16T09:19:04.094Z,32.52
2022-08-16T09:21:37.749Z,32.25
2022-08-16T09:24:11.416Z,32.12
2022-08-16T09:26:46.662Z,31.80
2022-08-16T09:29:24.275Z,31.49
2022-08-16T09:31:55.755Z,31.20
2022-08-16T09:34:28.237Z,30.75
2022-08-16T09:37:00.396Z,31.10
2022-08-16T09:39:41.335Z,30.97
2022-08-16T09:42:06.744Z,30.69
2022-08-16T09:45:10.781Z,30.88
2022-08-16T09:47:14.813Z,30.19
2022-08-16T09:49:51.005Z,30.81
2022-08-16T09:52:22.347Z,30.75
2022-08-16T09:54:55.243Z,29.89
2022-08-16T09:57:28.072Z,29.26
2022-08-16T10:00:02.226Z,29.13
2022-08-16T10:02:44.129Z,28.96
2022-08-16T10:05:11.545Z,28.88
2022-08-16T10:07:47.351Z,28.75
2022-08-16T10:10:30.884Z,28.37
2022-08-16T10:13:16.653Z,28.49
2022-08-16T10:15:55.871Z,28.64
2022-08-16T10:18:27.012Z,33.59
2022-08-16T10:21:00.850Z,29.81
2022-08-16T10:23:35.287Z,29.98
2022-08-16T10:27:03.781Z,30.03
2022-08-16T10:28:43.179Z,29.97
2022-08-16T10:31:43.353Z,30.09
2022-08-16T10:33:49.653Z,29.91
2022-08-16T10:36:38.970Z,29.85
2022-08-16T10:38:55.495Z,29.74
2022-08-16T10:41:27.865Z,30.07
2022-08-16T10:44:02.060Z,29.52
2022-08-16T10:46:41.569Z,29.40
2022-08-16T10:49:10.386Z,29.49
2022-08-16T10:52:02.977Z,29.48
2022-08-16T10:54:28.911Z,29.28
2022-08-16T10:56:55.683Z,28.99
2022-08-16T10:59:39.272Z,28.53
2022-08-16T11:07:08.731Z,28.16
2022-08-16T11:09:43.225Z,27.86
2022-08-16T11:12:16.573Z,27.90
2022-08-16T11:17:23.484Z,27.79
2022-08-16T11:22:41.974Z,27.50
2022-08-16T11:25:59.444Z,26.90
2022-08-16T11:27:41.469Z,26.90
2022-08-16T11:30:19.867Z,26.77
2022-08-16T11:32:49.676Z,27.26
2022-08-16T11:38:23.306Z,25.05
2022-08-16T11:40:38.917Z,24.06
2022-08-16T11:43:16.647Z,23.57
2022-08-16T11:45:53.895Z,23.16
2022-08-16T11:48:24.919Z,23.55
2022-08-16T11:50:57.958Z,24.07
2022-08-16T11:53:35.732Z,24.63
2022-08-16T11:56:07.730Z,24.77
2022-08-16T11:58:41.630Z,24.79
2022-08-16T12:01:15.501Z,24.67
2022-08-16T12:03:48.092Z,24.91
2022-08-16T12:06:24.973Z,24.73
2022-08-16T12:09:00.924Z,24.26
2022-08-16T12:11:34.054Z,23.11
2022-08-16T12:14:08.047Z,21.29
2022-08-16T12:16:39.466Z,19.20
2022-08-16T12:19:13.789Z,18.92
2022-08-16T12:21:58.773Z,16.10
2022-08-16T12:24:20.419Z,14.79
2022-08-16T12:26:53.856Z,13.72
2022-08-16T12:29:29.351Z,12.75
2022-08-16T12:32:36.094Z,12.75
2022-08-16T12:34:35.073Z,12.49
2022-08-16T12:37:11.678Z,11.98
2022-08-16T12:39:50.550Z,11.48
2022-08-16T12:42:15.968Z,10.67
2022-08-16T12:44:50.290Z,10.67
2022-08-16T12:47:39.982Z,10.29
2022-08-16T12:50:14.867Z,10.64
2022-08-16T12:52:52.314Z,10.23
2022-08-16T12:55:22.099Z,10.61
2022-08-16T12:57:58.553Z,10.89
2022-08-16T13:00:33.699Z,11.14
2022-08-16T13:03:07.954Z,11.53
2022-08-16T13:05:53.611Z,12.59
2022-08-16T13:08:20.479Z,13.69
2022-08-16T13:10:55.036Z,15.09
2022-08-16T13:13:29.377Z,15.95
2022-08-16T13:16:15.162Z,16.55
2022-08-16T13:18:39.366Z,17.32
2022-08-16T13:21:12.062Z,17.88
2022-08-16T13:23:44.059Z,18.10
2022-08-16T13:26:17.365Z,17.85
2022-08-16T13:28:49.975Z,17.65
2022-08-16T13:31:24.026Z,18.59
2022-08-16T13:33:58.685Z,18.78
2022-08-16T13:36:47.872Z,19.15
2022-08-16T13:39:06.074Z,18.91
2022-08-16T13:41:39.023Z,18.91
2022-08-16T13:44:11.454Z,19.49
2022-08-16T13:46:46.884Z,20.40
2022-08-16T13:49:18.957Z,21.09
2022-08-16T13:51:52.867Z,20.41
2022-08-16T13:54:27.424Z,18.91
2022-08-16T13:56:58.672Z,16.73
2022-08-16T13:59:30.747Z,16.28
2022-08-16T14:02:06.954Z,16.99
2022-08-16T14:04:42.513Z,17.92
2022-08-16T14:07:22.388Z,19.00
2022-08-16T14:09:50.670Z,20.00
2022-08-16T14:12:27.406Z,20.24
2022-08-16T14:15:01.677Z,19.12
2022-08-16T14:18:14.826Z,18.26
2022-08-16T14:20:19.061Z,18.45
2022-08-16T14:22:45.310Z,18.65
2022-08-16T14:25:22.083Z,19.25
2022-08-16T14:27:55.133Z,20.13
2022-08-16T14:30:28.413Z,20.88
2022-08-16T14:33:01.753Z,21.88
2022-08-16T14:35:49.359Z,22.54
2022-08-16T14:38:10.728Z,23.14
2022-08-16T14:40:47.143Z,23.74
2022-08-16T14:43:19.108Z,24.22
2022-08-16T14:45:54.655Z,24.65
2022-08-16T14:48:27.255Z,25.08
2022-08-16T14:50:59.591Z,25.60
2022-08-16T14:53:33.099Z,26.13
2022-08-16T14:56:05.341Z,24.66
2022-08-16T14:58:38.336Z,26.61
2022-08-16T15:01:10.733Z,26.79
2022-08-16T15:03:44.616Z,27.13
2022-08-16T15:06:16.669Z,27.32
2022-08-16T15:08:48.502Z,26.01
2022-08-16T15:11:22.673Z,27.93
2022-08-16T15:13:55.190Z,28.45
2022-08-16T15:16:28.944Z,28.68
2022-08-16T15:19:01.498Z,28.87
2022-08-16T15:21:34.148Z,29.08
2022-08-16T15:24:06.947Z,29.29
2022-08-16T15:26:45.262Z,29.18
2022-08-16T15:29:15.023Z,29.46
2022-08-16T15:31:50.977Z,29.61
2022-08-16T15:34:26.416Z,29.54
2022-08-16T15:36:58.985Z,29.56
2022-08-16T15:39:39.303Z,29.54
2022-08-16T15:42:11.047Z,29.59
2022-08-16T15:44:52.959Z,29.59
2022-08-16T15:47:17.712Z,29.79
2022-08-16T15:49:54.754Z,29.75
2022-08-16T15:52:33.319Z,29.94
2022-08-16T15:55:12.918Z,30.27
2022-08-16T15:57:44.614Z,30.60
2022-08-16T16:00:19.854Z,30.99
2022-08-16T16:03:15.050Z,31.33
2022-08-16T16:05:50.136Z,31.61
2022-08-16T16:08:27.819Z,32.04
2022-08-16T16:11:03.476Z,32.36
2022-08-16T16:13:37.458Z,32.63
2022-08-16T16:16:16.635Z,33.04
2022-08-16T16:18:48.968Z,33.38
2022-08-16T16:21:20.222Z,33.63
2022-08-16T16:23:57.779Z,34.00
2022-08-16T16:26:26.968Z,34.21
2022-08-16T16:29:08.715Z,32.11
2022-08-16T16:31:36.185Z,34.61
2022-08-16T16:34:07.860Z,34.82
2022-08-16T16:36:43.564Z,35.21
2022-08-16T16:39:15.543Z,33.02
2022-08-16T16:41:47.538Z,35.35
2022-08-16T16:44:31.845Z,35.67
2022-08-16T16:46:56.660Z,35.97
2022-08-16T16:49:27.970Z,36.03
2022-08-16T16:52:07.353Z,36.42
2022-08-16T16:54:36.048Z,36.64
2022-08-16T16:57:09.919Z,36.71
2022-08-16T16:59:42.533Z,36.96
2022-08-16T17:02:38.944Z,37.11
2022-08-16T17:04:50.524Z,37.36
2022-08-16T17:07:24.429Z,37.43
2022-08-16T17:09:57.119Z,37.70
2022-08-16T17:12:46.966Z,37.88
2022-08-16T17:15:05.440Z,37.88
2022-08-16T17:17:59.978Z,37.96
2022-08-16T17:20:13.490Z,38.25
2022-08-16T17:22:45.839Z,38.35
2022-08-16T17:25:19.615Z,36.72
2022-08-16T17:27:52.664Z,38.54
2022-08-16T17:30:45.597Z,38.79
2022-08-16T17:33:06.865Z,38.93
2022-08-16T17:35:44.270Z,39.17
2022-08-16T17:38:38.993Z,39.48
2022-08-16T17:40:58.632Z,39.56
2022-08-16T17:43:36.533Z,39.71
2022-08-16T17:46:50.927Z,39.78
2022-08-16T17:48:45.102Z,39.91
2022-08-16T17:51:17.907Z,40.09
2022-08-16T17:53:50.755Z,40.28
2022-08-16T17:56:23.805Z,40.48
2022-08-16T17:58:56.129Z,40.72
2022-08-16T18:01:29.448Z,40.97
2022-08-16T18:04:09.405Z,41.12
2022-08-16T18:06:36.560Z,41.21
2022-08-16T18:09:10.465Z,41.36
2022-08-16T18:11:44.713Z,41.41
2022-08-16T18:14:18.939Z,41.55
2022-08-16T18:16:52.996Z,41.67
2022-08-16T18:19:25.164Z,41.81
2022-08-16T18:22:16.293Z,41.89
2022-08-16T18:24:50.936Z,42.04
2022-08-16T18:27:26.231Z,42.04
2022-08-16T18:29:57.570Z,42.16
2022-08-16T18:32:29.347Z,40.12
2022-08-16T18:35:01.412Z,42.26
2022-08-16T18:37:34.511Z,42.42
2022-08-16T18:40:07.736Z,42.78
2022-08-16T18:42:40.377Z,42.88
2022-08-16T18:45:13.011Z,42.94
2022-08-16T18:47:45.135Z,42.83
2022-08-16T18:50:18.617Z,43.01
2022-08-16T18:52:53.896Z,43.21
2022-08-16T18:55:28.797Z,43.22
2022-08-16T18:58:03.736Z,43.23
2022-08-16T19:00:55.826Z,43.44
2022-08-16T19:03:16.608Z,43.47
2022-08-16T19:05:51.658Z,43.68
2022-08-16T19:08:23.973Z,43.55
2022-08-16T19:10:56.975Z,43.65
2022-08-16T19:13:52.979Z,43.64
2022-08-16T19:16:26.616Z,43.60
2022-08-16T19:18:58.905Z,43.57
2022-08-16T19:21:30.996Z,43.49
2022-08-16T19:24:02.999Z,43.49
2022-08-16T19:26:35.873Z,43.51
2022-08-16T19:29:08.626Z,43.59
2022-08-16T19:31:40.788Z,43.50
2022-08-16T19:34:14.734Z,43.45
2022-08-16T19:36:46.758Z,43.46
2022-08-16T19:39:20.697Z,43.46
2022-08-16T19:41:54.056Z,43.43
2022-08-16T19:44:27.841Z,43.61
2022-08-16T19:46:59.930Z,43.49
2022-08-16T19:49:32.017Z,43.49
2022-08-16T19:52:21.594Z,43.63
2022-08-16T19:54:56.406Z,43.63
2022-08-16T19:57:29.626Z,43.67
2022-08-16T20:00:01.835Z,43.76
2022-08-16T20:02:39.011Z,43.85
2022-08-16T20:05:11.002Z,43.97
2022-08-16T20:07:43.900Z,44.14
2022-08-16T20:10:18.805Z,44.30
2022-08-16T20:13:01.654Z,44.52
2022-08-16T20:15:29.995Z,44.57
2022-08-16T20:18:02.020Z,44.59
2022-08-16T20:20:33.932Z,44.70
2022-08-16T20:23:06.955Z,44.82
2022-08-16T20:25:41.340Z,44.90
2022-08-16T20:28:12.741Z,45.10
2022-08-16T20:30:46.680Z,45.26
2022-08-16T20:33:18.816Z,45.45
2022-08-16T20:35:51.451Z,45.58
2022-08-16T20:38:24.684Z,45.71
2022-08-16T20:40:56.740Z,45.80
2022-08-16T20:43:28.817Z,45.76
2022-08-16T20:46:01.139Z,45.87
2022-08-16T20:48:33.226Z,45.86
2022-08-16T20:51:06.896Z,45.92
2022-08-16T20:53:42.958Z,45.95
2022-08-16T20:56:14.882Z,46.07
2022-08-16T20:58:46.884Z,46.20
2022-08-16T21:01:18.962Z,46.26
2022-08-16T21:03:51.131Z,46.28
2022-08-16T21:06:24.323Z,46.48
2022-08-16T21:08:56.493Z,46.57
2022-08-16T21:11:36.541Z,46.52
2022-08-16T21:14:16.803Z,46.52
2022-08-16T21:16:52.801Z,46.62
2022-08-16T21:19:28.209Z,46.78
2022-08-16T21:22:16.051Z,46.78
2022-08-16T21:24:49.915Z,46.87
2022-08-16T21:30:32.233Z,47.26
2022-08-16T21:33:05.063Z,47.53
2022-08-16T21:35:52.621Z,46.02
2022-08-16T21:38:30.262Z,48.00
2022-08-16T21:41:03.211Z,48.35
2022-08-16T21:43:42.964Z,48.55
2022-08-16T21:46:16.571Z,48.86
2022-08-16T21:48:49.163Z,48.98
2022-08-16T21:51:21.333Z,49.22
2022-08-16T21:53:55.191Z,49.25
2022-08-16T21:56:36.918Z,49.49
2022-08-16T21:59:13.167Z,49.61
2022-08-16T22:01:47.548Z,49.72
2022-08-16T22:04:38.133Z,49.78
2022-08-16T22:06:59.576Z,49.88
2022-08-16T22:09:34.057Z,49.98
2022-08-16T22:12:07.445Z,50.14
2022-08-16T22:14:45.917Z,50.44
2022-08-16T22:17:23.117Z,50.48
2022-08-16T22:19:57.634Z,50.57
2022-08-16T22:22:36.054Z,50.69
2022-08-16T22:25:08.815Z,50.87
2022-08-16T22:27:44.446Z,50.95
2022-08-16T22:30:16.720Z,50.99
2022-08-16T22:32:51.099Z,51.03
2022-08-16T22:35:23.511Z,51.30
2022-08-16T22:38:46.467Z,51.33
2022-08-16T22:40:31.735Z,51.50
2022-08-16T22:43:09.733Z,51.65
2022-08-16T22:45:44.365Z,51.65
2022-08-16T22:48:18.266Z,51.88
2022-08-16T22:50:51.616Z,52.09
2022-08-16T22:53:31.373Z,52.20
2022-08-16T22:56:06.025Z,52.59
2022-08-16T22:58:39.750Z,52.61
2022-08-16T23:01:13.733Z,52.76
2022-08-16T23:03:49.116Z,52.92
2022-08-16T23:06:21.300Z,53.05
2022-08-16T23:08:56.507Z,53.30
2022-08-16T23:11:28.494Z,53.46
2022-08-16T23:14:04.848Z,53.65
2022-08-16T23:16:42.193Z,53.67
2022-08-16T23:19:19.273Z,53.91
2022-08-16T23:21:53.470Z,53.95
2022-08-16T23:24:25.928Z,54.14
2022-08-16T23:26:58.803Z,54.33
2022-08-16T23:29:30.808Z,54.49
2022-08-16T23:32:05.908Z,54.66
2022-08-16T23:34:40.386Z,54.77
2022-08-16T23:37:12.948Z,54.94
2022-08-16T23:39:45.736Z,55.06
2022-08-16T23:42:45.466Z,55.20
2022-08-16T23:44:58.968Z,55.22
2022-08-16T23:47:33.022Z,55.28
2022-08-16T23:50:05.444Z,55.36
2022-08-16T23:52:53.944Z,55.33
2022-08-16T23:55:11.576Z,55.40
2022-08-16T23:57:43.979Z,55.48
